createdAt,value
2019-04-14T00:02:40.448Z,4.50
2019-04-14T00:05:15.071Z,4.60
2019-04-14T00:07:47.066Z,4.60
2019-04-14T00:10:20.385Z,4.60
2019-04-14T00:12:51.783Z,4.60
2019-04-14T00:15:30.972Z,4.70
2019-04-14T00:17:56.709Z,4.70
2019-04-14T00:20:29.329Z,4.70
2019-04-14T00:23:00.543Z,4.70
2019-04-14T00:25:32.792Z,4.70
2019-04-14T00:28:05.121Z,4.70
2019-04-14T00:30:36.712Z,4.70
2019-04-14T00:33:10.549Z,4.70
2019-04-14T00:35:53.879Z,4.70
2019-04-14T00:38:28.436Z,4.80
2019-04-14T00:41:32.994Z,4.70
2019-04-14T00:44:03.580Z,4.80
2019-04-14T00:46:41.489Z,4.70
2019-04-14T00:49:13.601Z,4.70
2019-04-14T00:51:46.005Z,4.70
2019-04-14T00:54:19.536Z,4.70
2019-04-14T00:56:51.940Z,4.70
2019-04-14T00:59:23.133Z,4.70
2019-04-14T01:01:54.798Z,4.70
2019-04-14T01:04:25.787Z,4.70
2019-04-14T01:06:57.669Z,4.70
2019-04-14T01:09:28.947Z,4.60
2019-04-14T01:12:01.691Z,4.60
2019-04-14T01:14:34.189Z,4.60
2019-04-14T01:17:06.845Z,4.60
2019-04-14T01:19:38.087Z,4.50
2019-04-14T01:22:09.524Z,4.50
2019-04-14T01:24:40.768Z,4.50
2019-04-14T01:27:12.473Z,4.40
2019-04-14T01:29:44.817Z,4.40
2019-04-14T01:32:16.199Z,4.40
2019-04-14T01:34:47.658Z,4.40
2019-04-14T01:37:20.127Z,4.30
2019-04-14T01:39:52.394Z,4.30
2019-04-14T01:42:24.568Z,4.30
2019-04-14T01:44:57.011Z,4.30
2019-04-14T01:47:29.204Z,4.20
2019-04-14T01:50:01.778Z,4.20
2019-04-14T01:52:45.785Z,4.20
2019-04-14T01:55:28.857Z,4.10
2019-04-14T01:58:31.758Z,4.10
2019-04-14T02:01:15.303Z,4.00
2019-04-14T02:03:47.645Z,4.00
2019-04-14T02:06:20.084Z,3.90
2019-04-14T02:08:52.186Z,3.90
2019-04-14T02:11:24.686Z,3.80
2019-04-14T02:13:57.886Z,3.80
2019-04-14T02:16:37.949Z,3.70
2019-04-14T02:19:02.458Z,3.70
2019-04-14T02:21:34.560Z,3.70
2019-04-14T02:24:07.021Z,3.60
2019-04-14T02:26:39.435Z,3.60
2019-04-14T02:29:12.052Z,3.50
2019-04-14T02:32:13.881Z,3.50
2019-04-14T02:34:53.625Z,3.50
2019-04-14T02:37:21.231Z,3.50
2019-04-14T02:40:20.827Z,3.50
2019-04-14T02:50:05.447Z,3.40
2019-04-14T02:52:46.611Z,3.30
2019-04-14T03:00:23.940Z,3.30
2019-04-14T03:05:19.620Z,3.30
2019-04-14T03:07:59.973Z,3.20
2019-04-14T03:13:05.640Z,3.20
2019-04-14T03:21:19.781Z,3.30
2019-04-14T03:24:09.390Z,3.30
2019-04-14T03:27:04.553Z,3.20
2019-04-14T03:32:32.316Z,3.10
2019-04-14T03:34:55.197Z,3.10
2019-04-14T03:37:38.718Z,3.00
2019-04-14T03:42:28.703Z,3.00
2019-04-14T03:45:16.205Z,3.00
2019-04-14T03:47:31.498Z,3.00
2019-04-14T03:52:46.006Z,2.90
2019-04-14T03:55:01.055Z,2.90
2019-04-14T03:57:17.166Z,2.90
2019-04-14T03:59:49.888Z,2.90
2019-04-14T04:02:22.532Z,2.90
2019-04-14T04:04:53.818Z,2.90
2019-04-14T04:07:25.685Z,3.00
2019-04-14T04:10:03.028Z,3.00
2019-04-14T04:12:34.244Z,3.10
2019-04-14T04:15:08.279Z,3.10
2019-04-14T04:17:58.654Z,3.10
2019-04-14T04:20:47.719Z,3.20
2019-04-14T04:23:36.526Z,3.30
2019-04-14T04:26:42.950Z,3.40
2019-04-14T04:29:37.434Z,3.50
2019-04-14T04:32:16.492Z,3.60
2019-04-14T04:35:19.650Z,3.70
2019-04-14T04:37:56.916Z,3.80
2019-04-14T04:40:31.187Z,3.90
2019-04-14T04:43:03.718Z,4.00
2019-04-14T04:45:35.163Z,4.10
2019-04-14T04:48:06.710Z,4.20
2019-04-14T04:50:38.858Z,4.30
2019-04-14T04:53:10.069Z,4.40
2019-04-14T04:55:41.682Z,4.50
2019-04-14T04:58:12.815Z,4.60
2019-04-14T05:00:46.943Z,4.60
2019-04-14T05:03:17.016Z,4.70
2019-04-14T05:06:50.547Z,4.70
2019-04-14T05:09:40.497Z,4.70
2019-04-14T05:12:17.664Z,4.80
2019-04-14T05:14:54.489Z,4.80
2019-04-14T05:17:27.620Z,4.80
2019-04-14T05:19:59.280Z,4.80
2019-04-14T05:22:31.099Z,4.90
2019-04-14T05:25:03.509Z,4.80
2019-04-14T05:27:36.549Z,4.90
2019-04-14T05:30:09.048Z,4.90
2019-04-14T05:32:41.317Z,4.90
2019-04-14T05:35:14.013Z,4.90
2019-04-14T05:37:46.481Z,4.90
2019-04-14T05:40:18.794Z,4.90
2019-04-14T05:42:51.509Z,5.00
2019-04-14T05:45:24.008Z,5.00
2019-04-14T05:47:56.407Z,5.00
2019-04-14T05:50:27.662Z,5.00
2019-04-14T05:52:59.947Z,5.00
2019-04-14T05:55:32.684Z,5.10
2019-04-14T05:58:05.618Z,5.10
2019-04-14T06:00:38.584Z,5.20
2019-04-14T06:03:10.920Z,5.30
2019-04-14T06:05:42.849Z,5.40
2019-04-14T06:08:14.392Z,5.50
2019-04-14T06:10:45.617Z,5.50
2019-04-14T06:13:16.946Z,5.60
2019-04-14T06:15:48.136Z,5.70
2019-04-14T06:18:19.318Z,5.70
2019-04-14T06:20:50.574Z,5.80
2019-04-14T06:23:21.646Z,5.90
2019-04-14T06:25:52.935Z,5.90
2019-04-14T06:28:24.802Z,5.90
2019-04-14T06:31:15.473Z,6.00
2019-04-14T06:34:00.363Z,6.10
2019-04-14T06:36:59.584Z,6.20
2019-04-14T06:39:36.372Z,6.30
2019-04-14T06:42:08.744Z,6.50
2019-04-14T06:44:40.138Z,6.60
2019-04-14T06:47:11.531Z,6.80
2019-04-14T06:49:48.775Z,6.90
2019-04-14T06:52:20.520Z,7.00
2019-04-14T06:54:51.976Z,7.20
2019-04-14T06:57:23.045Z,7.30
2019-04-14T06:59:54.325Z,7.40
2019-04-14T07:02:25.573Z,7.60
2019-04-14T07:04:58.170Z,7.70
2019-04-14T07:07:30.071Z,7.80
2019-04-14T07:10:02.126Z,7.90
2019-04-14T07:12:33.447Z,8.00
2019-04-14T07:15:06.840Z,8.10
2019-04-14T07:17:40.293Z,8.10
2019-04-14T07:20:12.072Z,8.20
2019-04-14T07:22:43.584Z,8.20
2019-04-14T07:25:14.964Z,8.30
2019-04-14T07:27:46.492Z,8.40
2019-04-14T07:30:48.653Z,8.40
2019-04-14T07:33:37.143Z,8.50
2019-04-14T07:36:29.214Z,8.70
2019-04-14T07:39:18.998Z,8.80
2019-04-14T07:41:55.862Z,9.00
2019-04-14T07:44:33.265Z,9.00
2019-04-14T07:47:21.126Z,9.20
2019-04-14T07:50:16.648Z,9.40
2019-04-14T07:53:05.530Z,9.50
2019-04-14T07:55:46.625Z,9.60
2019-04-14T07:58:46.191Z,9.70
2019-04-14T08:01:21.427Z,9.70
2019-04-14T08:04:13.064Z,9.80
2019-04-14T08:06:49.025Z,9.90
2019-04-14T08:09:20.243Z,10.10
2019-04-14T08:11:51.414Z,10.30
2019-04-14T08:14:22.612Z,10.50
2019-04-14T08:16:54.076Z,10.60
2019-04-14T08:19:25.456Z,10.70
2019-04-14T08:21:56.685Z,10.80
2019-04-14T08:24:27.778Z,10.90
2019-04-14T08:26:59.374Z,11.10
2019-04-14T08:29:30.598Z,11.20
2019-04-14T08:32:01.613Z,11.30
2019-04-14T08:34:32.818Z,11.30
2019-04-14T08:37:03.884Z,11.40
2019-04-14T08:39:36.430Z,11.50
2019-04-14T08:42:29.576Z,11.70
2019-04-14T08:45:06.367Z,11.80
2019-04-14T08:47:56.705Z,11.90
2019-04-14T08:51:05.130Z,12.00
2019-04-14T08:57:27.128Z,12.40
2019-04-14T09:00:07.731Z,12.60
2019-04-14T09:03:11.670Z,12.60
2019-04-14T09:06:04.537Z,12.60
2019-04-14T09:08:40.694Z,12.60
2019-04-14T09:11:12.353Z,12.70
2019-04-14T09:13:43.742Z,12.90
2019-04-14T09:16:15.261Z,13.10
2019-04-14T09:18:49.645Z,13.20
2019-04-14T09:21:21.719Z,13.40
2019-04-14T09:23:52.892Z,13.40
2019-04-14T09:26:25.141Z,13.40
2019-04-14T09:28:56.547Z,13.50
2019-04-14T09:31:27.717Z,13.60
2019-04-14T09:33:59.311Z,13.70
2019-04-14T09:36:30.359Z,13.80
2019-04-14T09:39:01.401Z,13.90
2019-04-14T09:41:34.275Z,14.00
2019-04-14T09:44:05.775Z,14.00
2019-04-14T09:46:37.043Z,13.90
2019-04-14T09:49:08.349Z,13.90
2019-04-14T09:51:40.036Z,13.80
2019-04-14T09:54:12.018Z,13.90
2019-04-14T09:56:43.935Z,13.90
2019-04-14T09:59:15.469Z,13.80
2019-04-14T10:01:47.244Z,13.90
2019-04-14T10:04:19.153Z,13.90
2019-04-14T10:06:52.460Z,14.10
2019-04-14T10:09:24.279Z,14.20
2019-04-14T10:11:56.517Z,14.30
2019-04-14T10:14:28.040Z,14.40
2019-04-14T10:17:01.315Z,14.40
2019-04-14T10:19:32.445Z,14.30
2019-04-14T10:22:03.776Z,14.20
2019-04-14T10:24:35.104Z,14.10
2019-04-14T10:27:06.827Z,14.20
2019-04-14T10:29:37.982Z,14.20
2019-04-14T10:32:09.451Z,14.20
2019-04-14T10:34:40.662Z,14.30
2019-04-14T10:37:12.055Z,14.50
2019-04-14T10:39:43.396Z,14.40
2019-04-14T10:42:14.898Z,14.40
2019-04-14T10:44:45.989Z,14.50
2019-04-14T10:47:17.293Z,14.60
2019-04-14T10:49:48.604Z,14.80
2019-04-14T10:52:20.196Z,14.90
2019-04-14T10:54:51.409Z,14.90
2019-04-14T10:57:23.742Z,14.80
2019-04-14T10:59:55.523Z,14.70
2019-04-14T11:02:26.829Z,14.70
2019-04-14T11:04:58.625Z,14.70
2019-04-14T11:07:31.478Z,14.80
2019-04-14T11:10:05.768Z,14.80
2019-04-14T11:12:37.141Z,14.70
2019-04-14T11:15:09.326Z,14.70
2019-04-14T11:17:40.683Z,14.80
2019-04-14T11:20:12.471Z,14.90
2019-04-14T11:22:43.943Z,15.10
2019-04-14T11:25:15.746Z,15.20
2019-04-14T11:27:47.034Z,15.10
2019-04-14T11:30:21.017Z,15.00
2019-04-14T11:33:17.066Z,14.90
2019-04-14T11:35:57.156Z,14.90
2019-04-14T11:38:32.301Z,14.70
2019-04-14T11:41:07.087Z,14.80
2019-04-14T11:43:38.248Z,14.80
2019-04-14T11:46:09.688Z,15.00
2019-04-14T11:48:40.735Z,15.10
2019-04-14T11:51:12.559Z,15.20
2019-04-14T11:53:43.681Z,15.30
2019-04-14T11:56:15.732Z,15.40
2019-04-14T11:58:46.897Z,15.50
2019-04-14T12:01:44.510Z,15.60
2019-04-14T12:04:37.951Z,15.60
2019-04-14T12:07:20.109Z,15.90
2019-04-14T12:10:10.087Z,16.20
2019-04-14T12:12:41.373Z,16.10
2019-04-14T12:15:16.567Z,16.00
2019-04-14T12:17:45.436Z,16.00
2019-04-14T12:20:27.014Z,16.00
2019-04-14T12:22:58.487Z,16.00
2019-04-14T12:25:33.619Z,15.90
2019-04-14T12:28:05.241Z,16.10
2019-04-14T12:30:37.665Z,16.10
2019-04-14T12:33:09.166Z,15.90
2019-04-14T12:35:41.000Z,15.90
2019-04-14T12:38:14.037Z,15.80
2019-04-14T12:40:45.536Z,15.60
2019-04-14T12:43:44.626Z,15.60
2019-04-14T12:46:53.064Z,15.50
2019-04-14T12:49:31.433Z,15.40
2019-04-14T12:52:36.368Z,15.30
2019-04-14T12:55:08.380Z,15.40
2019-04-14T12:57:50.720Z,15.70
2019-04-14T13:00:40.462Z,15.70
2019-04-14T13:03:11.912Z,15.50
2019-04-14T13:05:43.296Z,15.50
2019-04-14T13:08:14.924Z,15.50
2019-04-14T13:10:47.447Z,15.30
2019-04-14T13:13:18.918Z,15.20
2019-04-14T13:15:50.247Z,15.10
2019-04-14T13:18:22.666Z,15.00
2019-04-14T13:20:53.927Z,14.90
2019-04-14T13:23:25.121Z,15.10
2019-04-14T13:25:56.508Z,15.40
2019-04-14T13:28:27.932Z,15.50
2019-04-14T13:30:59.655Z,15.60
2019-04-14T13:33:31.105Z,15.50
2019-04-14T13:36:25.710Z,15.50
2019-04-14T13:39:00.504Z,15.50
2019-04-14T13:41:33.545Z,15.70
2019-04-14T13:44:04.854Z,15.70
2019-04-14T13:46:36.327Z,15.80
2019-04-14T13:49:07.651Z,15.70
2019-04-14T13:51:40.734Z,15.70
2019-04-14T13:54:11.888Z,15.90
2019-04-14T13:56:43.141Z,15.80
2019-04-14T13:59:14.696Z,16.00
2019-04-14T14:01:46.121Z,16.10
2019-04-14T14:04:17.620Z,16.20
2019-04-14T14:06:48.971Z,16.20
2019-04-14T14:09:20.377Z,16.30
2019-04-14T14:12:16.515Z,16.30
2019-04-14T14:14:55.489Z,16.40
2019-04-14T14:17:54.877Z,16.50
2019-04-14T14:20:33.851Z,16.80
2019-04-14T14:23:24.010Z,17.00
2019-04-14T14:26:00.411Z,17.00
2019-04-14T14:28:31.666Z,17.10
2019-04-14T14:31:02.747Z,17.10
2019-04-14T14:33:34.200Z,16.80
2019-04-14T14:36:10.333Z,16.30
2019-04-14T14:38:41.739Z,15.80
2019-04-14T14:41:15.633Z,15.40
2019-04-14T14:43:46.889Z,15.40
2019-04-14T14:46:50.347Z,15.90
2019-04-14T14:49:46.341Z,16.30
2019-04-14T14:52:19.276Z,15.90
2019-04-14T14:54:51.689Z,15.30
2019-04-14T14:57:22.764Z,15.50
2019-04-14T14:59:53.871Z,15.40
2019-04-14T15:02:25.142Z,15.60
2019-04-14T15:04:56.781Z,15.80
2019-04-14T15:07:28.029Z,16.00
2019-04-14T15:09:59.280Z,16.20
2019-04-14T15:12:30.700Z,16.40
2019-04-14T15:15:01.857Z,16.10
2019-04-14T15:17:33.096Z,15.40
2019-04-14T15:20:04.621Z,14.80
2019-04-14T15:22:38.574Z,14.50
2019-04-14T15:25:10.488Z,14.10
2019-04-14T15:27:41.985Z,13.50
2019-04-14T15:30:18.978Z,13.30
2019-04-14T15:32:50.961Z,13.60
2019-04-14T15:35:22.651Z,13.30
2019-04-14T15:37:54.775Z,12.60
2019-04-14T15:40:26.602Z,12.00
2019-04-14T15:42:57.987Z,11.50
2019-04-14T15:45:29.192Z,11.10
2019-04-14T15:48:01.040Z,10.90
2019-04-14T15:50:32.947Z,10.80
2019-04-14T15:53:05.122Z,10.90
2019-04-14T15:55:36.841Z,10.90
2019-04-14T15:58:19.930Z,11.10
2019-04-14T16:01:12.783Z,11.20
2019-04-14T16:04:15.438Z,11.10
2019-04-14T16:07:18.169Z,11.20
2019-04-14T16:10:07.762Z,11.60
2019-04-14T16:12:52.076Z,11.60
2019-04-14T16:15:38.970Z,11.90
2019-04-14T16:18:48.891Z,12.10
2019-04-14T16:21:34.739Z,12.40
2019-04-14T16:24:08.036Z,11.90
2019-04-14T16:27:13.319Z,11.70
2019-04-14T16:30:09.341Z,11.50
2019-04-14T16:33:05.833Z,11.40
2019-04-14T16:35:37.078Z,11.30
2019-04-14T16:38:09.418Z,10.80
2019-04-14T16:40:41.073Z,10.50
2019-04-14T16:43:12.392Z,9.50
2019-04-14T16:45:43.413Z,8.70
2019-04-14T16:48:14.501Z,8.20
2019-04-14T16:50:45.424Z,7.80
2019-04-14T16:53:29.182Z,7.40
2019-04-14T16:56:22.190Z,7.10
2019-04-14T16:58:59.230Z,6.80
2019-04-14T17:01:42.073Z,6.70
2019-04-14T17:04:14.054Z,6.50
2019-04-14T17:06:46.037Z,6.40
2019-04-14T17:09:17.446Z,6.30
2019-04-14T17:11:49.195Z,6.20
2019-04-14T17:14:28.424Z,6.10
2019-04-14T17:17:16.957Z,6.00
2019-04-14T17:19:57.176Z,5.80
2019-04-14T17:22:54.318Z,5.70
2019-04-14T17:25:34.208Z,5.60
2019-04-14T17:28:13.009Z,5.50
2019-04-14T17:31:02.418Z,5.40
2019-04-14T17:33:56.087Z,5.30
2019-04-14T17:36:33.546Z,5.20
2019-04-14T17:39:13.498Z,5.20
2019-04-14T17:41:53.337Z,5.10
2019-04-14T17:44:36.668Z,5.00
2019-04-14T17:47:33.210Z,5.00
2019-04-14T17:50:23.690Z,4.90
2019-04-14T17:53:14.272Z,4.80
2019-04-14T17:56:05.049Z,4.70
2019-04-14T17:58:45.068Z,4.60
2019-04-14T18:01:35.046Z,4.60
2019-04-14T18:04:10.924Z,4.60
2019-04-14T18:06:52.540Z,4.60
2019-04-14T18:09:29.518Z,4.50
2019-04-14T18:12:26.318Z,4.40
2019-04-14T18:15:25.751Z,4.40
2019-04-14T18:18:25.260Z,4.40
2019-04-14T18:20:59.029Z,4.30
2019-04-14T18:23:30.852Z,4.30
2019-04-14T18:26:02.372Z,4.30
2019-04-14T18:28:51.157Z,4.30
2019-04-14T18:31:30.124Z,4.30
2019-04-14T18:34:23.597Z,4.30
2019-04-14T18:37:01.677Z,4.30
2019-04-14T18:39:50.342Z,4.20
2019-04-14T18:42:38.331Z,4.20
2019-04-14T18:45:24.710Z,4.20
2019-04-14T18:48:17.608Z,4.20
2019-04-14T18:51:13.699Z,4.20
2019-04-14T18:54:02.804Z,4.20
2019-04-14T18:56:45.730Z,4.10
2019-04-14T18:59:48.141Z,4.10
2019-04-14T19:02:20.833Z,4.00
2019-04-14T19:04:52.012Z,4.00
2019-04-14T19:07:23.270Z,4.00
2019-04-14T19:09:54.966Z,4.00
2019-04-14T19:12:40.224Z,4.00
2019-04-14T19:15:45.901Z,4.00
2019-04-14T19:18:28.865Z,4.00
2019-04-14T19:21:05.822Z,4.00
2019-04-14T19:23:37.972Z,4.00
2019-04-14T19:28:51.809Z,4.00
2019-04-14T19:31:24.017Z,4.00
2019-04-14T19:33:55.335Z,4.00
2019-04-14T19:36:26.778Z,4.00
2019-04-14T19:38:59.478Z,4.00
2019-04-14T19:41:36.132Z,4.00
2019-04-14T19:44:11.235Z,4.00
2019-04-14T19:46:43.139Z,4.00
2019-04-14T19:49:14.841Z,4.00
2019-04-14T19:51:46.286Z,4.00
2019-04-14T19:54:17.715Z,4.00
2019-04-14T19:56:49.413Z,4.00
2019-04-14T19:59:20.877Z,4.00
2019-04-14T20:01:52.447Z,3.90
2019-04-14T20:04:23.610Z,3.90
2019-04-14T20:06:54.867Z,3.90
2019-04-14T20:09:25.956Z,3.90
2019-04-14T20:11:57.594Z,3.90
2019-04-14T20:14:29.412Z,3.90
2019-04-14T20:17:37.964Z,3.80
2019-04-14T20:20:28.086Z,3.80
2019-04-14T20:23:24.689Z,3.80
2019-04-14T20:26:22.325Z,3.80
2019-04-14T20:28:57.238Z,3.80
2019-04-14T20:31:53.722Z,3.70
2019-04-14T20:34:26.116Z,3.70
2019-04-14T20:36:57.291Z,3.70
2019-04-14T20:39:29.835Z,3.80
2019-04-14T20:42:01.147Z,3.80
2019-04-14T20:44:36.831Z,3.70
2019-04-14T20:47:20.416Z,3.70
2019-04-14T20:52:23.567Z,3.60
2019-04-14T20:55:57.913Z,3.60
2019-04-14T20:58:30.467Z,3.60
2019-04-14T21:01:01.916Z,3.60
2019-04-14T21:03:53.217Z,3.60
2019-04-14T21:06:45.566Z,3.60
2019-04-14T21:09:37.572Z,3.60
2019-04-14T21:12:40.000Z,3.50
2019-04-14T21:15:30.277Z,3.50
2019-04-14T21:18:29.487Z,3.50
2019-04-14T21:21:05.655Z,3.50
2019-04-14T21:24:04.688Z,3.40
2019-04-14T21:26:48.737Z,3.40
2019-04-14T21:29:44.465Z,3.30
2019-04-14T21:32:28.533Z,3.30
2019-04-14T21:35:17.192Z,3.30
2019-04-14T21:38:01.033Z,3.30
2019-04-14T21:40:56.932Z,3.20
2019-04-14T21:43:28.383Z,3.20
2019-04-14T21:45:59.782Z,3.20
2019-04-14T21:48:31.192Z,3.20
2019-04-14T21:51:02.579Z,3.20
2019-04-14T21:53:33.608Z,3.20
2019-04-14T21:56:13.183Z,3.20
2019-04-14T21:59:02.561Z,3.20
2019-04-14T22:01:53.464Z,3.10
2019-04-14T22:04:44.234Z,3.10
2019-04-14T22:07:32.198Z,3.00
2019-04-14T22:10:24.417Z,3.00
2019-04-14T22:12:55.555Z,3.00
2019-04-14T22:15:26.745Z,3.00
2019-04-14T22:17:59.198Z,2.90
2019-04-14T22:20:30.255Z,2.90
2019-04-14T22:23:02.030Z,2.90
2019-04-14T22:25:33.096Z,2.90
2019-04-14T22:28:04.480Z,2.80
2019-04-14T22:30:35.760Z,2.80
2019-04-14T22:33:07.165Z,2.80
2019-04-14T22:35:38.389Z,2.70
2019-04-14T22:38:09.426Z,2.70
2019-04-14T22:40:40.657Z,2.60
2019-04-14T22:43:11.812Z,2.60
2019-04-14T22:45:43.144Z,2.60
2019-04-14T22:48:14.378Z,2.60
2019-04-14T22:50:45.588Z,2.50
2019-04-14T22:53:16.860Z,2.50
2019-04-14T22:55:48.122Z,2.50
2019-04-14T22:58:19.576Z,2.50
2019-04-14T23:00:54.830Z,2.40
2019-04-14T23:03:44.476Z,2.30
2019-04-14T23:06:24.990Z,2.30
2019-04-14T23:09:04.728Z,2.30
2019-04-14T23:12:01.535Z,2.30
2019-04-14T23:14:47.333Z,2.30
2019-04-14T23:17:41.751Z,2.30
2019-04-14T23:20:23.605Z,2.30
2019-04-14T23:23:12.293Z,2.20
2019-04-14T23:25:43.722Z,2.10
2019-04-14T23:28:14.856Z,2.00
2019-04-14T23:30:46.258Z,2.00
2019-04-14T23:33:17.480Z,1.90
2019-04-14T23:35:48.797Z,1.90
2019-04-14T23:38:20.015Z,1.90
2019-04-14T23:40:53.894Z,1.90
2019-04-14T23:43:25.102Z,1.90
2019-04-14T23:45:56.273Z,1.80
2019-04-14T23:48:27.425Z,1.80
2019-04-14T23:50:58.616Z,1.80
2019-04-14T23:53:29.834Z,1.70
2019-04-14T23:56:01.382Z,1.80
2019-04-14T23:58:32.777Z,1.80
